sensor_id;sensor_type;location;lat;lon;timestamp;temperature;humidity
19999;DHT22;10160;50.926;4.374;2022-10-15T00:01:15;15.20;99.90
19999;DHT22;10160;50.926;4.374;2022-10-15T00:03:42;15.20;99.90
19999;DHT22;10160;50.926;4.374;2022-10-15T00:06:11;15.20;99.90
19999;DHT22;10160;50.926;4.374;2022-10-15T00:08:38;15.20;99.90
19999;DHT22;10160;50.926;4.374;2022-10-15T00:11:15;15.20;99.90
19999;DHT22;10160;50.926;4.374;2022-10-15T00:13:41;15.20;99.90
19999;DHT22;10160;50.926;4.374;2022-10-15T00:16:10;15.00;99.90
19999;DHT22;10160;50.926;4.374;2022-10-15T00:18:36;15.00;99.90
19999;DHT22;10160;50.926;4.374;2022-10-15T00:21:05;15.10;99.90
19999;DHT22;10160;50.926;4.374;2022-10-15T00:23:31;15.10;99.90
19999;DHT22;10160;50.926;4.374;2022-10-15T00:26:09;15.10;99.90
19999;DHT22;10160;50.926;4.374;2022-10-15T00:28:35;15.10;99.90
19999;DHT22;10160;50.926;4.374;2022-10-15T00:31:15;15.10;99.90
19999;DHT22;10160;50.926;4.374;2022-10-15T00:33:42;15.20;99.90
19999;DHT22;10160;50.926;4.374;2022-10-15T00:36:13;15.10;99.90
19999;DHT22;10160;50.926;4.374;2022-10-15T00:38:39;15.30;99.90
19999;DHT22;10160;50.926;4.374;2022-10-15T00:41:07;15.20;99.90
19999;DHT22;10160;50.926;4.374;2022-10-15T00:43:39;15.10;99.90
19999;DHT22;10160;50.926;4.374;2022-10-15T00:46:15;15.20;99.90
19999;DHT22;10160;50.926;4.374;2022-10-15T00:48:42;15.20;99.90
19999;DHT22;10160;50.926;4.374;2022-10-15T00:51:08;15.20;99.90
19999;DHT22;10160;50.926;4.374;2022-10-15T00:53:34;15.30;99.90
19999;DHT22;10160;50.926;4.374;2022-10-15T00:56:00;15.20;99.90
19999;DHT22;10160;50.926;4.374;2022-10-15T00:58:28;15.30;99.90
19999;DHT22;10160;50.926;4.374;2022-10-15T01:00:56;15.20;99.90
19999;DHT22;10160;50.926;4.374;2022-10-15T01:03:23;15.20;99.90
19999;DHT22;10160;50.926;4.374;2022-10-15T01:05:51;15.20;99.90
19999;DHT22;10160;50.926;4.374;2022-10-15T01:08:18;15.20;99.90
19999;DHT22;10160;50.926;4.374;2022-10-15T01:16:31;15.30;99.90
19999;DHT22;10160;50.926;4.374;2022-10-15T01:19:10;15.20;99.90
19999;DHT22;10160;50.926;4.374;2022-10-15T01:21:45;15.10;99.90
19999;DHT22;10160;50.926;4.374;2022-10-15T01:29:47;14.90;99.90
19999;DHT22;10160;50.926;4.374;2022-10-15T01:35:30;15.00;99.90
19999;DHT22;10160;50.926;4.374;2022-10-15T01:38:00;15.10;99.90
19999;DHT22;10160;50.926;4.374;2022-10-15T01:40:39;15.10;99.90
19999;DHT22;10160;50.926;4.374;2022-10-15T01:43:12;15.00;99.90
19999;DHT22;10160;50.926;4.374;2022-10-15T01:45:44;15.10;99.90
19999;DHT22;10160;50.926;4.374;2022-10-15T01:48:13;15.10;99.90
19999;DHT22;10160;50.926;4.374;2022-10-15T01:50:45;15.10;99.90
19999;DHT22;10160;50.926;4.374;2022-10-15T01:53:14;15.10;99.90
19999;DHT22;10160;50.926;4.374;2022-10-15T01:55:41;15.00;99.90
19999;DHT22;10160;50.926;4.374;2022-10-15T01:58:11;15.00;99.90
19999;DHT22;10160;50.926;4.374;2022-10-15T02:00:40;15.00;99.90
19999;DHT22;10160;50.926;4.374;2022-10-15T02:03:07;15.00;99.90
19999;DHT22;10160;50.926;4.374;2022-10-15T02:05:40;15.00;99.90
19999;DHT22;10160;50.926;4.374;2022-10-15T02:08:18;15.10;99.90
19999;DHT22;10160;50.926;4.374;2022-10-15T02:11:02;15.20;99.90
19999;DHT22;10160;50.926;4.374;2022-10-15T02:13:58;15.10;99.90
19999;DHT22;10160;50.926;4.374;2022-10-15T02:19:14;15.00;99.90
19999;DHT22;10160;50.926;4.374;2022-10-15T02:21:45;14.90;99.90
19999;DHT22;10160;50.926;4.374;2022-10-15T02:24:18;14.90;99.90
19999;DHT22;10160;50.926;4.374;2022-10-15T02:26:45;14.90;99.90
19999;DHT22;10160;50.926;4.374;2022-10-15T02:29:17;14.90;99.90
19999;DHT22;10160;50.926;4.374;2022-10-15T02:31:46;14.90;99.90
19999;DHT22;10160;50.926;4.374;2022-10-15T02:34:17;14.90;99.90
19999;DHT22;10160;50.926;4.374;2022-10-15T02:36:43;14.70;99.90
19999;DHT22;10160;50.926;4.374;2022-10-15T02:39:12;14.70;99.90
19999;DHT22;10160;50.926;4.374;2022-10-15T02:41:39;14.70;99.90
19999;DHT22;10160;50.926;4.374;2022-10-15T02:44:05;14.80;99.90
19999;DHT22;10160;50.926;4.374;2022-10-15T02:46:31;14.70;99.90
19999;DHT22;10160;50.926;4.374;2022-10-15T02:48:56;14.80;99.90
19999;DHT22;10160;50.926;4.374;2022-10-15T02:51:22;14.70;99.90
19999;DHT22;10160;50.926;4.374;2022-10-15T02:53:48;14.80;99.90
19999;DHT22;10160;50.926;4.374;2022-10-15T02:56:14;14.80;99.90
19999;DHT22;10160;50.926;4.374;2022-10-15T02:58:40;14.70;99.90
19999;DHT22;10160;50.926;4.374;2022-10-15T03:01:06;14.60;99.90
19999;DHT22;10160;50.926;4.374;2022-10-15T03:03:31;14.60;99.90
19999;DHT22;10160;50.926;4.374;2022-10-15T03:05:57;14.60;99.90
19999;DHT22;10160;50.926;4.374;2022-10-15T03:08:22;14.70;99.90
19999;DHT22;10160;50.926;4.374;2022-10-15T03:10:48;14.80;99.90
19999;DHT22;10160;50.926;4.374;2022-10-15T03:13:14;14.70;99.90
19999;DHT22;10160;50.926;4.374;2022-10-15T03:15:39;14.70;99.90
19999;DHT22;10160;50.926;4.374;2022-10-15T03:18:06;14.60;99.90
19999;DHT22;10160;50.926;4.374;2022-10-15T03:20:31;14.80;99.90
19999;DHT22;10160;50.926;4.374;2022-10-15T03:22:57;14.70;99.90
19999;DHT22;10160;50.926;4.374;2022-10-15T03:25:23;14.80;99.90
19999;DHT22;10160;50.926;4.374;2022-10-15T03:27:48;14.70;99.90
19999;DHT22;10160;50.926;4.374;2022-10-15T03:30:17;14.80;99.90
19999;DHT22;10160;50.926;4.374;2022-10-15T03:32:43;14.60;99.90
19999;DHT22;10160;50.926;4.374;2022-10-15T03:35:09;14.60;99.90
19999;DHT22;10160;50.926;4.374;2022-10-15T03:37:34;14.60;99.90
19999;DHT22;10160;50.926;4.374;2022-10-15T03:40:00;14.60;99.90
19999;DHT22;10160;50.926;4.374;2022-10-15T03:42:26;14.70;99.90
19999;DHT22;10160;50.926;4.374;2022-10-15T03:44:51;14.60;99.90
19999;DHT22;10160;50.926;4.374;2022-10-15T03:47:17;14.60;99.90
19999;DHT22;10160;50.926;4.374;2022-10-15T03:49:42;14.70;99.90
19999;DHT22;10160;50.926;4.374;2022-10-15T03:52:08;14.80;99.90
19999;DHT22;10160;50.926;4.374;2022-10-15T03:54:33;14.80;99.90
19999;DHT22;10160;50.926;4.374;2022-10-15T03:56:59;14.80;99.90
19999;DHT22;10160;50.926;4.374;2022-10-15T03:59:25;14.80;99.90
19999;DHT22;10160;50.926;4.374;2022-10-15T04:01:51;14.60;99.90
19999;DHT22;10160;50.926;4.374;2022-10-15T04:04:16;14.40;99.90
19999;DHT22;10160;50.926;4.374;2022-10-15T04:06:42;14.30;99.90
19999;DHT22;10160;50.926;4.374;2022-10-15T04:09:12;14.20;99.90
19999;DHT22;10160;50.926;4.374;2022-10-15T04:11:38;14.30;99.90
19999;DHT22;10160;50.926;4.374;2022-10-15T04:14:05;14.40;99.90
19999;DHT22;10160;50.926;4.374;2022-10-15T04:16:31;14.50;99.90
19999;DHT22;10160;50.926;4.374;2022-10-15T04:18:58;14.50;99.90
19999;DHT22;10160;50.926;4.374;2022-10-15T04:21:26;14.40;99.90
19999;DHT22;10160;50.926;4.374;2022-10-15T04:23:52;14.30;99.90
19999;DHT22;10160;50.926;4.374;2022-10-15T04:26:17;14.30;99.90
19999;DHT22;10160;50.926;4.374;2022-10-15T04:28:43;14.30;99.90
19999;DHT22;10160;50.926;4.374;2022-10-15T04:31:09;14.30;99.90
19999;DHT22;10160;50.926;4.374;2022-10-15T04:33:34;14.10;99.90
19999;DHT22;10160;50.926;4.374;2022-10-15T04:36:03;14.20;99.90
19999;DHT22;10160;50.926;4.374;2022-10-15T04:38:29;14.10;99.90
19999;DHT22;10160;50.926;4.374;2022-10-15T04:41:12;13.90;99.90
19999;DHT22;10160;50.926;4.374;2022-10-15T04:43:38;13.90;99.90
19999;DHT22;10160;50.926;4.374;2022-10-15T04:46:06;13.90;99.90
19999;DHT22;10160;50.926;4.374;2022-10-15T04:48:33;13.90;99.90
19999;DHT22;10160;50.926;4.374;2022-10-15T04:51:13;14.00;99.90
19999;DHT22;10160;50.926;4.374;2022-10-15T04:53:39;14.00;99.90
19999;DHT22;10160;50.926;4.374;2022-10-15T04:56:07;14.20;99.90
19999;DHT22;10160;50.926;4.374;2022-10-15T04:58:35;14.20;99.90
19999;DHT22;10160;50.926;4.374;2022-10-15T05:01:06;14.30;99.90
19999;DHT22;10160;50.926;4.374;2022-10-15T05:03:33;14.10;99.90
19999;DHT22;10160;50.926;4.374;2022-10-15T05:06:07;13.90;99.90
19999;DHT22;10160;50.926;4.374;2022-10-15T05:08:33;13.90;99.90
19999;DHT22;10160;50.926;4.374;2022-10-15T05:11:00;13.90;99.90
19999;DHT22;10160;50.926;4.374;2022-10-15T05:13:26;14.00;99.90
19999;DHT22;10160;50.926;4.374;2022-10-15T05:15:52;14.20;99.90
19999;DHT22;10160;50.926;4.374;2022-10-15T05:18:18;14.10;99.90
19999;DHT22;10160;50.926;4.374;2022-10-15T05:20:43;14.20;99.90
19999;DHT22;10160;50.926;4.374;2022-10-15T05:23:09;14.20;99.90
19999;DHT22;10160;50.926;4.374;2022-10-15T05:25:35;14.30;99.90
19999;DHT22;10160;50.926;4.374;2022-10-15T05:28:00;14.30;99.90
19999;DHT22;10160;50.926;4.374;2022-10-15T05:30:26;14.30;99.90
19999;DHT22;10160;50.926;4.374;2022-10-15T05:32:52;14.20;99.90
19999;DHT22;10160;50.926;4.374;2022-10-15T05:35:18;14.20;99.90
19999;DHT22;10160;50.926;4.374;2022-10-15T05:37:44;14.20;99.90
19999;DHT22;10160;50.926;4.374;2022-10-15T05:40:10;14.30;99.90
19999;DHT22;10160;50.926;4.374;2022-10-15T05:42:36;14.50;99.90
19999;DHT22;10160;50.926;4.374;2022-10-15T05:45:02;14.40;99.90
19999;DHT22;10160;50.926;4.374;2022-10-15T05:47:28;14.30;99.90
19999;DHT22;10160;50.926;4.374;2022-10-15T05:49:53;14.20;99.90
19999;DHT22;10160;50.926;4.374;2022-10-15T05:52:19;14.30;99.90
19999;DHT22;10160;50.926;4.374;2022-10-15T05:54:45;14.40;99.90
19999;DHT22;10160;50.926;4.374;2022-10-15T05:57:11;14.50;99.90
19999;DHT22;10160;50.926;4.374;2022-10-15T05:59:36;14.60;99.90
19999;DHT22;10160;50.926;4.374;2022-10-15T06:02:02;14.70;99.90
19999;DHT22;10160;50.926;4.374;2022-10-15T06:04:27;14.60;99.90
19999;DHT22;10160;50.926;4.374;2022-10-15T06:06:53;14.70;99.90
19999;DHT22;10160;50.926;4.374;2022-10-15T06:09:19;14.80;99.90
19999;DHT22;10160;50.926;4.374;2022-10-15T06:11:44;14.70;99.90
19999;DHT22;10160;50.926;4.374;2022-10-15T06:14:10;14.60;99.90
19999;DHT22;10160;50.926;4.374;2022-10-15T06:16:36;14.60;99.90
19999;DHT22;10160;50.926;4.374;2022-10-15T06:19:02;14.50;99.90
19999;DHT22;10160;50.926;4.374;2022-10-15T06:21:27;14.50;99.90
19999;DHT22;10160;50.926;4.374;2022-10-15T06:23:53;14.70;99.90
19999;DHT22;10160;50.926;4.374;2022-10-15T06:26:19;14.70;99.90
19999;DHT22;10160;50.926;4.374;2022-10-15T06:28:45;14.70;99.90
19999;DHT22;10160;50.926;4.374;2022-10-15T06:31:10;14.80;99.90
19999;DHT22;10160;50.926;4.374;2022-10-15T06:33:36;14.60;99.90
19999;DHT22;10160;50.926;4.374;2022-10-15T06:36:04;14.70;99.90
19999;DHT22;10160;50.926;4.374;2022-10-15T06:38:30;14.90;99.90
19999;DHT22;10160;50.926;4.374;2022-10-15T06:40:56;15.00;99.90
19999;DHT22;10160;50.926;4.374;2022-10-15T06:43:21;15.00;99.90
19999;DHT22;10160;50.926;4.374;2022-10-15T06:45:48;15.10;99.90
19999;DHT22;10160;50.926;4.374;2022-10-15T06:48:13;15.10;99.90
19999;DHT22;10160;50.926;4.374;2022-10-15T06:50:39;15.10;99.90
19999;DHT22;10160;50.926;4.374;2022-10-15T06:53:05;15.00;99.90
19999;DHT22;10160;50.926;4.374;2022-10-15T06:55:32;15.10;99.90
19999;DHT22;10160;50.926;4.374;2022-10-15T06:57:58;15.10;99.90
19999;DHT22;10160;50.926;4.374;2022-10-15T07:00:24;15.10;99.90
19999;DHT22;10160;50.926;4.374;2022-10-15T07:02:50;15.10;99.90
19999;DHT22;10160;50.926;4.374;2022-10-15T07:05:17;15.20;99.90
19999;DHT22;10160;50.926;4.374;2022-10-15T07:07:52;15.10;99.90
19999;DHT22;10160;50.926;4.374;2022-10-15T07:10:18;15.30;99.90
19999;DHT22;10160;50.926;4.374;2022-10-15T07:12:44;15.30;99.90
19999;DHT22;10160;50.926;4.374;2022-10-15T07:15:09;15.50;99.90
19999;DHT22;10160;50.926;4.374;2022-10-15T07:17:35;15.40;99.90
19999;DHT22;10160;50.926;4.374;2022-10-15T07:20:03;15.40;99.90
19999;DHT22;10160;50.926;4.374;2022-10-15T07:22:28;15.40;99.90
19999;DHT22;10160;50.926;4.374;2022-10-15T07:24:54;15.30;99.90
19999;DHT22;10160;50.926;4.374;2022-10-15T07:27:20;15.30;99.90
19999;DHT22;10160;50.926;4.374;2022-10-15T07:29:45;15.30;99.90
19999;DHT22;10160;50.926;4.374;2022-10-15T07:32:11;15.30;99.90
19999;DHT22;10160;50.926;4.374;2022-10-15T07:34:37;15.30;99.90
19999;DHT22;10160;50.926;4.374;2022-10-15T07:37:03;15.40;99.90
19999;DHT22;10160;50.926;4.374;2022-10-15T07:39:28;15.40;99.90
19999;DHT22;10160;50.926;4.374;2022-10-15T07:41:54;15.40;99.90
19999;DHT22;10160;50.926;4.374;2022-10-15T07:44:20;15.40;99.90
19999;DHT22;10160;50.926;4.374;2022-10-15T07:46:46;15.50;99.90
19999;DHT22;10160;50.926;4.374;2022-10-15T07:49:12;15.40;99.90
19999;DHT22;10160;50.926;4.374;2022-10-15T07:51:38;15.50;99.90
19999;DHT22;10160;50.926;4.374;2022-10-15T07:54:03;15.60;99.90
19999;DHT22;10160;50.926;4.374;2022-10-15T07:56:29;15.50;99.90
19999;DHT22;10160;50.926;4.374;2022-10-15T07:58:55;15.50;99.90
19999;DHT22;10160;50.926;4.374;2022-10-15T08:01:21;15.60;99.90
19999;DHT22;10160;50.926;4.374;2022-10-15T08:03:46;15.70;99.90
19999;DHT22;10160;50.926;4.374;2022-10-15T08:06:13;15.80;99.90
19999;DHT22;10160;50.926;4.374;2022-10-15T08:08:38;15.70;99.90
19999;DHT22;10160;50.926;4.374;2022-10-15T08:11:12;15.90;99.90
19999;DHT22;10160;50.926;4.374;2022-10-15T08:13:39;16.00;99.90
19999;DHT22;10160;50.926;4.374;2022-10-15T08:16:10;15.90;99.90
19999;DHT22;10160;50.926;4.374;2022-10-15T08:18:37;15.80;99.90
19999;DHT22;10160;50.926;4.374;2022-10-15T08:21:04;15.90;99.90
19999;DHT22;10160;50.926;4.374;2022-10-15T08:23:31;15.80;99.90
19999;DHT22;10160;50.926;4.374;2022-10-15T08:25:58;15.60;99.90
19999;DHT22;10160;50.926;4.374;2022-10-15T08:28:25;15.70;99.90
19999;DHT22;10160;50.926;4.374;2022-10-15T08:30:51;15.80;99.90
19999;DHT22;10160;50.926;4.374;2022-10-15T08:33:17;15.80;99.90
19999;DHT22;10160;50.926;4.374;2022-10-15T08:35:42;15.80;99.90
19999;DHT22;10160;50.926;4.374;2022-10-15T08:38:11;15.90;99.90
19999;DHT22;10160;50.926;4.374;2022-10-15T08:40:37;16.00;99.90
19999;DHT22;10160;50.926;4.374;2022-10-15T08:43:16;16.10;99.90
19999;DHT22;10160;50.926;4.374;2022-10-15T08:45:43;16.20;99.90
19999;DHT22;10160;50.926;4.374;2022-10-15T08:48:22;16.20;99.90
19999;DHT22;10160;50.926;4.374;2022-10-15T08:50:58;16.20;99.90
19999;DHT22;10160;50.926;4.374;2022-10-15T08:53:27;16.20;99.90
19999;DHT22;10160;50.926;4.374;2022-10-15T08:56:02;16.10;99.90
19999;DHT22;10160;50.926;4.374;2022-10-15T09:01:58;16.10;99.90
19999;DHT22;10160;50.926;4.374;2022-10-15T09:07:08;16.30;99.90
19999;DHT22;10160;50.926;4.374;2022-10-15T09:09:52;16.20;99.90
19999;DHT22;10160;50.926;4.374;2022-10-15T09:12:45;16.20;99.90
19999;DHT22;10160;50.926;4.374;2022-10-15T09:15:14;16.30;99.90
19999;DHT22;10160;50.926;4.374;2022-10-15T09:17:40;16.40;99.90
19999;DHT22;10160;50.926;4.374;2022-10-15T09:20:15;16.40;99.90
19999;DHT22;10160;50.926;4.374;2022-10-15T09:22:41;16.30;99.90
19999;DHT22;10160;50.926;4.374;2022-10-15T09:25:14;16.30;99.90
19999;DHT22;10160;50.926;4.374;2022-10-15T09:27:40;16.40;99.90
19999;DHT22;10160;50.926;4.374;2022-10-15T09:44:42;16.90;99.90
19999;DHT22;10160;50.926;4.374;2022-10-15T09:47:28;17.00;99.90
19999;DHT22;10160;50.926;4.374;2022-10-15T09:49:54;17.10;99.90
19999;DHT22;10160;50.926;4.374;2022-10-15T09:55:22;17.40;99.90
19999;DHT22;10160;50.926;4.374;2022-10-15T09:57:55;17.40;99.90
19999;DHT22;10160;50.926;4.374;2022-10-15T10:00:23;17.30;99.90
19999;DHT22;10160;50.926;4.374;2022-10-15T10:03:06;17.30;99.90
19999;DHT22;10160;50.926;4.374;2022-10-15T10:05:34;17.30;99.90
19999;DHT22;10160;50.926;4.374;2022-10-15T10:08:20;17.30;99.90
19999;DHT22;10160;50.926;4.374;2022-10-15T10:11:13;17.40;99.90
19999;DHT22;10160;50.926;4.374;2022-10-15T10:13:49;17.50;99.90
19999;DHT22;10160;50.926;4.374;2022-10-15T10:16:17;17.50;99.90
19999;DHT22;10160;50.926;4.374;2022-10-15T10:18:43;17.60;99.90
19999;DHT22;10160;50.926;4.374;2022-10-15T10:21:31;17.70;99.90
19999;DHT22;10160;50.926;4.374;2022-10-15T10:24:25;17.60;99.90
19999;DHT22;10160;50.926;4.374;2022-10-15T10:26:53;17.60;99.90
19999;DHT22;10160;50.926;4.374;2022-10-15T10:29:20;17.70;99.90
19999;DHT22;10160;50.926;4.374;2022-10-15T10:31:47;17.60;99.90
19999;DHT22;10160;50.926;4.374;2022-10-15T10:34:26;17.60;99.90
19999;DHT22;10160;50.926;4.374;2022-10-15T10:36:53;17.70;99.90
19999;DHT22;10160;50.926;4.374;2022-10-15T10:39:28;17.70;99.90
19999;DHT22;10160;50.926;4.374;2022-10-15T10:44:37;17.70;99.90
19999;DHT22;10160;50.926;4.374;2022-10-15T10:49:35;17.80;99.90
19999;DHT22;10160;50.926;4.374;2022-10-15T10:52:03;17.90;99.90
19999;DHT22;10160;50.926;4.374;2022-10-15T10:54:29;18.00;99.90
19999;DHT22;10160;50.926;4.374;2022-10-15T10:56:58;18.10;99.90
19999;DHT22;10160;50.926;4.374;2022-10-15T10:59:33;18.30;99.90
19999;DHT22;10160;50.926;4.374;2022-10-15T11:02:00;18.30;99.90
19999;DHT22;10160;50.926;4.374;2022-10-15T11:04:29;18.20;99.90
19999;DHT22;10160;50.926;4.374;2022-10-15T11:13:10;18.60;99.90
19999;DHT22;10160;50.926;4.374;2022-10-15T11:15:48;18.70;99.90
19999;DHT22;10160;50.926;4.374;2022-10-15T11:29:15;18.70;99.90
19999;DHT22;10160;50.926;4.374;2022-10-15T11:31:48;18.80;99.90
19999;DHT22;10160;50.926;4.374;2022-10-15T11:43:09;19.50;99.90
19999;DHT22;10160;50.926;4.374;2022-10-15T11:45:58;19.50;99.90
19999;DHT22;10160;50.926;4.374;2022-10-15T11:56:48;19.70;99.90
19999;DHT22;10160;50.926;4.374;2022-10-15T11:59:29;19.60;99.90
19999;DHT22;10160;50.926;4.374;2022-10-15T12:02:17;19.40;99.90
19999;DHT22;10160;50.926;4.374;2022-10-15T12:04:46;19.20;99.90
19999;DHT22;10160;50.926;4.374;2022-10-15T12:07:21;19.30;99.90
19999;DHT22;10160;50.926;4.374;2022-10-15T12:09:51;19.40;99.90
19999;DHT22;10160;50.926;4.374;2022-10-15T12:12:36;19.40;99.90
19999;DHT22;10160;50.926;4.374;2022-10-15T12:20:41;19.30;99.90
19999;DHT22;10160;50.926;4.374;2022-10-15T12:23:22;19.30;99.90
19999;DHT22;10160;50.926;4.374;2022-10-15T12:25:48;19.20;99.90
19999;DHT22;10160;50.926;4.374;2022-10-15T12:28:23;18.90;99.90
19999;DHT22;10160;50.926;4.374;2022-10-15T12:30:57;18.90;99.90
19999;DHT22;10160;50.926;4.374;2022-10-15T12:35:57;18.10;99.90
19999;DHT22;10160;50.926;4.374;2022-10-15T12:38:30;18.10;99.90
19999;DHT22;10160;50.926;4.374;2022-10-15T12:41:03;18.60;99.90
19999;DHT22;10160;50.926;4.374;2022-10-15T12:43:31;19.40;99.90
19999;DHT22;10160;50.926;4.374;2022-10-15T12:46:02;20.10;99.90
19999;DHT22;10160;50.926;4.374;2022-10-15T12:48:34;20.70;99.90
19999;DHT22;10160;50.926;4.374;2022-10-15T12:53:43;20.10;99.90
19999;DHT22;10160;50.926;4.374;2022-10-15T12:58:39;21.10;99.90
19999;DHT22;10160;50.926;4.374;2022-10-15T13:03:42;23.20;99.90
19999;DHT22;10160;50.926;4.374;2022-10-15T13:11:28;23.60;99.90
19999;DHT22;10160;50.926;4.374;2022-10-15T13:14:01;23.80;99.90
19999;DHT22;10160;50.926;4.374;2022-10-15T13:16:28;24.20;99.90
19999;DHT22;10160;50.926;4.374;2022-10-15T13:18:55;23.90;99.90
19999;DHT22;10160;50.926;4.374;2022-10-15T13:21:23;23.00;99.90
19999;DHT22;10160;50.926;4.374;2022-10-15T13:24:10;22.70;99.90
19999;DHT22;10160;50.926;4.374;2022-10-15T13:26:36;22.30;99.90
19999;DHT22;10160;50.926;4.374;2022-10-15T13:29:02;21.60;99.90
19999;DHT22;10160;50.926;4.374;2022-10-15T13:31:35;21.30;99.90
19999;DHT22;10160;50.926;4.374;2022-10-15T13:34:13;21.00;99.90
19999;DHT22;10160;50.926;4.374;2022-10-15T13:36:40;20.80;99.90
19999;DHT22;10160;50.926;4.374;2022-10-15T13:44:34;20.60;99.90
19999;DHT22;10160;50.926;4.374;2022-10-15T13:47:01;21.00;99.90
19999;DHT22;10160;50.926;4.374;2022-10-15T13:49:26;21.50;99.90
19999;DHT22;10160;50.926;4.374;2022-10-15T13:51:52;21.70;99.90
19999;DHT22;10160;50.926;4.374;2022-10-15T13:54:24;21.90;99.90
19999;DHT22;10160;50.926;4.374;2022-10-15T13:57:01;22.60;99.90
19999;DHT22;10160;50.926;4.374;2022-10-15T13:59:29;22.20;99.90
19999;DHT22;10160;50.926;4.374;2022-10-15T14:02:00;21.80;99.90
19999;DHT22;10160;50.926;4.374;2022-10-15T14:04:28;21.30;99.90
19999;DHT22;10160;50.926;4.374;2022-10-15T14:06:59;21.40;99.90
19999;DHT22;10160;50.926;4.374;2022-10-15T14:09:30;21.70;99.90
19999;DHT22;10160;50.926;4.374;2022-10-15T14:11:57;22.20;99.90
19999;DHT22;10160;50.926;4.374;2022-10-15T14:14:37;22.60;99.90
19999;DHT22;10160;50.926;4.374;2022-10-15T14:17:10;23.20;99.90
19999;DHT22;10160;50.926;4.374;2022-10-15T14:19:52;22.70;99.90
19999;DHT22;10160;50.926;4.374;2022-10-15T14:22:20;22.50;99.90
19999;DHT22;10160;50.926;4.374;2022-10-15T14:24:50;22.70;99.90
19999;DHT22;10160;50.926;4.374;2022-10-15T14:27:20;22.60;99.90
19999;DHT22;10160;50.926;4.374;2022-10-15T14:29:48;22.40;99.90
19999;DHT22;10160;50.926;4.374;2022-10-15T14:32:28;21.80;99.90
19999;DHT22;10160;50.926;4.374;2022-10-15T14:34:56;21.60;99.90
19999;DHT22;10160;50.926;4.374;2022-10-15T14:42:30;21.70;99.90
19999;DHT22;10160;50.926;4.374;2022-10-15T14:45:10;21.80;99.90
19999;DHT22;10160;50.926;4.374;2022-10-15T14:47:36;22.00;99.90
19999;DHT22;10160;50.926;4.374;2022-10-15T14:50:02;21.80;99.90
19999;DHT22;10160;50.926;4.374;2022-10-15T14:52:29;21.70;99.90
19999;DHT22;10160;50.926;4.374;2022-10-15T14:55:06;21.40;99.90
19999;DHT22;10160;50.926;4.374;2022-10-15T14:57:37;21.10;99.90
19999;DHT22;10160;50.926;4.374;2022-10-15T15:00:12;20.90;99.90
19999;DHT22;10160;50.926;4.374;2022-10-15T15:02:38;20.60;99.90
19999;DHT22;10160;50.926;4.374;2022-10-15T15:07:37;19.80;99.90
19999;DHT22;10160;50.926;4.374;2022-10-15T15:10:04;19.70;99.90
19999;DHT22;10160;50.926;4.374;2022-10-15T15:12:31;19.50;99.90
19999;DHT22;10160;50.926;4.374;2022-10-15T15:14:57;19.30;99.90
19999;DHT22;10160;50.926;4.374;2022-10-15T15:17:25;19.10;99.90
19999;DHT22;10160;50.926;4.374;2022-10-15T15:19:53;19.20;99.90
19999;DHT22;10160;50.926;4.374;2022-10-15T15:22:27;19.30;99.90
19999;DHT22;10160;50.926;4.374;2022-10-15T15:24:54;19.20;99.90
19999;DHT22;10160;50.926;4.374;2022-10-15T15:27:25;19.30;99.90
19999;DHT22;10160;50.926;4.374;2022-10-15T15:29:51;19.30;99.90
19999;DHT22;10160;50.926;4.374;2022-10-15T15:32:18;19.10;99.90
19999;DHT22;10160;50.926;4.374;2022-10-15T15:34:44;19.00;99.90
19999;DHT22;10160;50.926;4.374;2022-10-15T15:37:15;19.20;99.90
19999;DHT22;10160;50.926;4.374;2022-10-15T15:39:41;19.20;99.90
19999;DHT22;10160;50.926;4.374;2022-10-15T15:42:14;19.30;99.90
19999;DHT22;10160;50.926;4.374;2022-10-15T15:44:40;19.20;99.90
19999;DHT22;10160;50.926;4.374;2022-10-15T15:47:06;19.10;99.90
19999;DHT22;10160;50.926;4.374;2022-10-15T15:49:32;19.10;99.90
19999;DHT22;10160;50.926;4.374;2022-10-15T15:51:58;19.10;99.90
19999;DHT22;10160;50.926;4.374;2022-10-15T15:54:23;19.00;99.90
19999;DHT22;10160;50.926;4.374;2022-10-15T15:56:49;19.00;99.90
19999;DHT22;10160;50.926;4.374;2022-10-15T15:59:14;18.90;99.90
19999;DHT22;10160;50.926;4.374;2022-10-15T16:01:44;18.80;99.90
19999;DHT22;10160;50.926;4.374;2022-10-15T16:04:10;18.70;99.90
19999;DHT22;10160;50.926;4.374;2022-10-15T16:06:37;18.40;99.90
19999;DHT22;10160;50.926;4.374;2022-10-15T16:09:03;18.50;99.90
19999;DHT22;10160;50.926;4.374;2022-10-15T16:11:30;18.30;99.90
19999;DHT22;10160;50.926;4.374;2022-10-15T16:13:57;18.20;99.90
19999;DHT22;10160;50.926;4.374;2022-10-15T16:16:24;18.20;99.90
19999;DHT22;10160;50.926;4.374;2022-10-15T16:18:50;18.20;99.90
19999;DHT22;10160;50.926;4.374;2022-10-15T16:21:25;18.20;99.90
19999;DHT22;10160;50.926;4.374;2022-10-15T16:23:51;18.10;99.90
19999;DHT22;10160;50.926;4.374;2022-10-15T16:26:17;18.00;99.90
19999;DHT22;10160;50.926;4.374;2022-10-15T16:28:43;18.00;99.90
19999;DHT22;10160;50.926;4.374;2022-10-15T16:31:17;18.00;99.90
19999;DHT22;10160;50.926;4.374;2022-10-15T16:33:43;17.90;99.90
19999;DHT22;10160;50.926;4.374;2022-10-15T16:36:09;17.80;99.90
19999;DHT22;10160;50.926;4.374;2022-10-15T16:38:37;17.80;99.90
19999;DHT22;10160;50.926;4.374;2022-10-15T16:41:03;17.80;99.90
19999;DHT22;10160;50.926;4.374;2022-10-15T16:43:29;17.80;99.90
19999;DHT22;10160;50.926;4.374;2022-10-15T16:45:56;17.70;99.90
19999;DHT22;10160;50.926;4.374;2022-10-15T16:48:22;17.80;99.90
19999;DHT22;10160;50.926;4.374;2022-10-15T16:51:04;17.60;99.90
19999;DHT22;10160;50.926;4.374;2022-10-15T16:53:31;17.50;99.90
19999;DHT22;10160;50.926;4.374;2022-10-15T16:56:09;17.40;99.90
19999;DHT22;10160;50.926;4.374;2022-10-15T16:58:36;17.40;99.90
19999;DHT22;10160;50.926;4.374;2022-10-15T17:01:04;17.30;99.90
19999;DHT22;10160;50.926;4.374;2022-10-15T17:03:32;17.40;99.90
19999;DHT22;10160;50.926;4.374;2022-10-15T17:06:00;17.40;99.90
19999;DHT22;10160;50.926;4.374;2022-10-15T17:08:37;17.30;99.90
19999;DHT22;10160;50.926;4.374;2022-10-15T17:11:08;17.30;99.90
19999;DHT22;10160;50.926;4.374;2022-10-15T17:13:34;17.20;99.90
19999;DHT22;10160;50.926;4.374;2022-10-15T17:16:08;17.20;99.90
19999;DHT22;10160;50.926;4.374;2022-10-15T17:18:33;17.20;99.90
19999;DHT22;10160;50.926;4.374;2022-10-15T17:20:59;17.20;99.90
19999;DHT22;10160;50.926;4.374;2022-10-15T17:23:25;17.20;99.90
19999;DHT22;10160;50.926;4.374;2022-10-15T17:25:53;17.10;99.90
19999;DHT22;10160;50.926;4.374;2022-10-15T17:28:19;17.10;99.90
19999;DHT22;10160;50.926;4.374;2022-10-15T17:30:44;17.10;99.90
19999;DHT22;10160;50.926;4.374;2022-10-15T17:33:10;17.00;99.90
19999;DHT22;10160;50.926;4.374;2022-10-15T17:35:36;16.90;99.90